createdAt,value
2019-01-10T06:35:47.488Z,10.25
2019-01-10T06:38:14.573Z,9.50
2019-01-10T06:40:41.653Z,11.60
2019-01-10T06:43:08.757Z,10.60
2019-01-10T06:45:35.837Z,8.45
2019-01-10T06:48:03.407Z,11.20
2019-01-10T06:50:30.499Z,9.80
2019-01-10T06:52:57.579Z,10.10
2019-01-10T06:55:24.665Z,10.95
2019-01-10T06:57:51.743Z,10.13
2019-01-10T07:00:23.200Z,12.80
2019-01-10T07:02:50.267Z,9.03
2019-01-10T07:05:17.328Z,10.55
2019-01-10T07:07:44.875Z,13.03
2019-01-10T07:10:15.051Z,11.38
2019-01-10T07:12:42.084Z,8.60
2019-01-10T07:15:09.151Z,10.80
2019-01-10T07:17:36.220Z,10.15
2019-01-10T07:20:44.644Z,24.82
2019-01-10T07:23:11.702Z,12.23
2019-01-10T07:25:38.771Z,17.60
2019-01-10T07:28:29.379Z,10.53
2019-01-10T07:30:57.608Z,8.48
2019-01-10T07:33:24.692Z,11.55
2019-01-10T07:35:55.765Z,10.82
2019-01-10T07:38:22.849Z,16.27
2019-01-10T07:40:49.910Z,10.78
2019-01-10T07:43:19.811Z,14.58
2019-01-10T07:45:46.854Z,11.73
2019-01-10T07:48:13.911Z,10.18
2019-01-10T07:50:40.964Z,8.43
2019-01-10T07:53:08.627Z,14.85
2019-01-10T07:55:36.082Z,15.20
2019-01-10T07:58:03.260Z,11.05
2019-01-10T08:00:30.296Z,12.55
2019-01-10T08:02:57.338Z,10.95
2019-01-10T08:05:24.400Z,14.93
2019-01-10T08:07:51.512Z,12.35
2019-01-10T08:10:18.572Z,12.53
2019-01-10T08:12:45.612Z,13.98
2019-01-10T08:15:15.329Z,16.77
2019-01-10T08:17:42.391Z,13.15
2019-01-10T08:20:09.553Z,12.70
2019-01-10T08:22:36.602Z,14.60
2019-01-10T08:25:04.034Z,11.48
2019-01-10T08:27:31.036Z,10.48
2019-01-10T08:29:58.083Z,25.82
2019-01-10T08:32:25.162Z,11.00
2019-01-10T08:34:52.241Z,13.18
2019-01-10T08:37:19.266Z,11.85
2019-01-10T08:39:46.320Z,13.15
2019-01-10T08:42:13.358Z,11.53
2019-01-10T08:44:40.417Z,12.28
2019-01-10T08:47:07.661Z,12.55
2019-01-10T08:49:36.068Z,14.18
2019-01-10T08:52:03.399Z,12.30
2019-01-10T08:54:30.461Z,11.22
2019-01-10T08:56:57.538Z,13.25
2019-01-10T08:59:24.602Z,10.05
2019-01-10T09:01:51.646Z,9.33
2019-01-10T09:04:18.669Z,9.65
2019-01-10T09:06:45.730Z,15.98
2019-01-10T09:09:12.779Z,13.30
2019-01-10T09:11:39.813Z,12.05
2019-01-10T09:14:06.878Z,11.43
2019-01-10T09:16:33.906Z,10.98
2019-01-10T09:19:00.977Z,8.78
2019-01-10T09:21:28.971Z,10.93
2019-01-10T09:23:56.022Z,10.20
2019-01-10T09:26:23.073Z,10.82
2019-01-10T09:28:50.101Z,8.30
2019-01-10T09:31:17.149Z,6.55
2019-01-10T09:33:44.219Z,11.15
2019-01-10T09:36:11.315Z,7.37
2019-01-10T09:38:38.375Z,11.20
2019-01-10T09:41:05.407Z,8.15
2019-01-10T09:43:32.461Z,7.55
2019-01-10T09:45:59.527Z,10.85
2019-01-10T09:48:26.561Z,12.70
2019-01-10T09:50:53.643Z,7.97
2019-01-10T09:53:20.678Z,8.33
2019-01-10T09:55:47.737Z,9.13
2019-01-10T09:58:14.821Z,8.68
2019-01-10T10:00:41.896Z,6.03
2019-01-10T10:03:08.946Z,7.67
2019-01-10T10:05:36.039Z,7.42
2019-01-10T10:08:03.269Z,6.45
2019-01-10T10:10:30.449Z,7.62
2019-01-10T10:12:57.607Z,7.50
2019-01-10T10:15:26.469Z,10.78
2019-01-10T10:17:53.524Z,9.30
2019-01-10T10:20:22.165Z,7.28
2019-01-10T10:22:49.211Z,8.55
2019-01-10T10:25:16.261Z,7.53
2019-01-10T10:27:43.299Z,7.40
2019-01-10T10:30:15.660Z,7.33
2019-01-10T10:32:42.741Z,8.18
2019-01-10T10:35:10.890Z,8.10
2019-01-10T10:37:38.441Z,10.00
2019-01-10T10:40:07.955Z,7.45
2019-01-10T10:42:35.011Z,12.45
2019-01-10T10:45:02.121Z,13.43
2019-01-10T10:47:29.144Z,9.63
2019-01-10T10:49:56.201Z,9.15
2019-01-10T10:52:23.303Z,6.85
2019-01-10T10:54:50.371Z,7.47
2019-01-10T10:57:17.520Z,7.78
2019-01-10T10:59:44.546Z,6.20
2019-01-10T11:02:11.677Z,6.75
2019-01-10T11:04:38.745Z,8.83
2019-01-10T11:07:05.784Z,7.55
2019-01-10T11:09:32.856Z,7.53
2019-01-10T11:11:59.918Z,9.18
2019-01-10T11:14:27.025Z,10.18
2019-01-10T11:16:54.111Z,15.93
2019-01-10T11:19:21.207Z,7.55
2019-01-10T11:21:48.275Z,8.15
2019-01-10T11:24:15.335Z,6.55
2019-01-10T11:26:42.361Z,7.70
2019-01-10T11:29:09.422Z,9.43
2019-01-10T11:31:36.447Z,9.43
2019-01-10T11:34:03.636Z,8.85
2019-01-10T11:36:30.673Z,9.98
2019-01-10T11:38:57.744Z,7.33
2019-01-10T11:41:24.806Z,8.40
2019-01-10T11:43:51.861Z,20.50
2019-01-10T11:46:19.759Z,27.30
2019-01-10T11:48:47.172Z,49.67
2019-01-10T11:51:14.269Z,37.70
2019-01-10T11:53:41.292Z,15.23
2019-01-10T11:56:08.331Z,10.95
2019-01-10T11:58:35.366Z,8.68
2019-01-10T12:01:02.422Z,8.25
2019-01-10T12:03:29.466Z,9.48
2019-01-10T12:05:56.520Z,9.05
2019-01-10T12:08:23.597Z,10.50
2019-01-10T12:10:50.638Z,12.63
2019-01-10T12:13:17.697Z,9.08
2019-01-10T12:15:44.744Z,13.05
2019-01-10T12:18:12.126Z,17.00
2019-01-10T12:20:39.196Z,13.85
2019-01-10T12:23:06.287Z,14.55
2019-01-10T12:25:33.333Z,9.13
2019-01-10T12:28:00.401Z,10.25
2019-01-10T12:30:27.414Z,8.93
2019-01-10T12:32:54.500Z,9.88
2019-01-10T12:35:22.651Z,10.25
2019-01-10T12:37:49.687Z,9.88
2019-01-10T12:40:16.867Z,10.08
2019-01-10T12:42:44.026Z,10.95
2019-01-10T12:45:11.532Z,15.45
2019-01-10T12:47:38.579Z,15.48
2019-01-10T12:50:10.224Z,11.30
2019-01-10T12:52:37.267Z,11.97
2019-01-10T12:55:04.463Z,11.73
2019-01-10T12:57:31.542Z,10.38
2019-01-10T12:59:58.594Z,12.95
2019-01-10T13:02:25.663Z,13.32
2019-01-10T13:04:52.704Z,7.60
2019-01-10T13:07:19.768Z,11.43
2019-01-10T13:09:46.833Z,14.35
2019-01-10T13:12:13.914Z,13.38
2019-01-10T13:14:40.990Z,11.75
2019-01-10T13:17:08.100Z,15.58
2019-01-10T13:19:35.164Z,16.42
2019-01-10T13:22:02.200Z,21.77
2019-01-10T13:24:31.674Z,11.15
2019-01-10T13:26:58.733Z,11.45
2019-01-10T13:29:25.804Z,12.07
2019-01-10T13:31:52.877Z,15.55
2019-01-10T13:34:19.934Z,10.32
2019-01-10T13:36:46.970Z,8.68
2019-01-10T13:39:14.005Z,18.73
2019-01-10T13:41:41.056Z,12.10
2019-01-10T13:44:08.080Z,11.53
2019-01-10T13:46:35.142Z,15.65
2019-01-10T13:49:02.199Z,12.88
2019-01-10T13:51:29.270Z,9.90
2019-01-10T13:53:56.286Z,17.32
2019-01-10T13:56:23.344Z,11.70
2019-01-10T13:58:50.375Z,11.97
2019-01-10T14:01:17.482Z,17.52
2019-01-10T14:03:44.555Z,10.20
2019-01-10T14:06:11.669Z,10.55
2019-01-10T14:08:38.693Z,12.03
2019-01-10T14:11:05.795Z,10.03
2019-01-10T14:13:32.885Z,12.13
2019-01-10T14:16:00.114Z,10.10
2019-01-10T14:18:27.161Z,8.73
2019-01-10T14:20:54.228Z,12.60
2019-01-10T14:23:21.421Z,13.43
2019-01-10T14:25:50.315Z,13.45
2019-01-10T14:28:17.418Z,9.65
2019-01-10T14:30:44.505Z,8.23
2019-01-10T14:33:12.623Z,8.70
2019-01-10T14:35:39.681Z,10.00
2019-01-10T14:38:06.808Z,13.72
2019-01-10T14:40:33.889Z,11.03
2019-01-10T14:43:00.980Z,11.55
2019-01-10T14:45:28.096Z,30.02
2019-01-10T14:48:01.558Z,15.38
2019-01-10T14:50:24.213Z,9.38
2019-01-10T14:52:51.309Z,11.48
2019-01-10T14:55:18.411Z,10.15
2019-01-10T14:57:45.780Z,15.55
2019-01-10T15:00:15.747Z,13.20
2019-01-10T15:02:42.795Z,11.48
2019-01-10T15:05:09.873Z,11.05
2019-01-10T15:07:37.396Z,8.80
2019-01-10T15:10:04.720Z,10.38
2019-01-10T15:12:32.062Z,8.63
2019-01-10T15:14:59.358Z,14.83
2019-01-10T15:17:26.399Z,10.98
2019-01-10T15:19:54.407Z,10.30
2019-01-10T15:22:21.528Z,10.30
2019-01-10T15:24:48.636Z,12.18
2019-01-10T15:27:15.715Z,9.80
2019-01-10T15:29:42.788Z,9.48
2019-01-10T15:32:09.860Z,9.43
2019-01-10T15:34:36.924Z,10.55
2019-01-10T15:37:05.065Z,10.38
2019-01-10T15:39:32.665Z,8.78
2019-01-10T15:42:00.797Z,11.08
2019-01-10T15:44:39.910Z,10.23
2019-01-10T15:47:07.810Z,8.98
2019-01-10T15:49:35.507Z,9.65
2019-01-10T15:52:02.657Z,7.85
2019-01-10T15:54:30.474Z,9.10
2019-01-10T15:57:00.785Z,7.37
2019-01-10T15:59:34.080Z,11.40
2019-01-10T16:02:01.780Z,13.75
2019-01-10T16:04:28.972Z,9.80
2019-01-10T16:06:56.886Z,9.63
2019-01-10T16:09:24.597Z,14.95
2019-01-10T16:11:51.704Z,8.63
2019-01-10T16:14:19.847Z,16.32
2019-01-10T16:16:47.268Z,9.40
2019-01-10T16:19:15.494Z,9.43
2019-01-10T16:21:42.793Z,9.23
2019-01-10T16:24:09.988Z,10.68
2019-01-10T16:26:37.097Z,10.98
2019-01-10T16:29:04.317Z,9.43
2019-01-10T16:31:31.386Z,12.35
2019-01-10T16:33:58.542Z,12.28
2019-01-10T16:36:25.704Z,12.00
2019-01-10T16:38:52.859Z,9.40
2019-01-10T16:41:20.002Z,11.00
2019-01-10T16:43:47.109Z,11.18
2019-01-10T16:46:14.236Z,9.45
2019-01-10T16:48:58.233Z,7.92
2019-01-10T16:51:25.596Z,11.38
2019-01-10T16:53:52.752Z,11.85
2019-01-10T16:56:20.738Z,13.72
2019-01-10T16:58:51.046Z,12.35
2019-01-10T17:01:18.284Z,11.78
2019-01-10T17:03:47.128Z,9.23
2019-01-10T17:06:36.151Z,9.18
2019-01-10T17:09:25.780Z,9.95
2019-01-10T17:11:53.004Z,14.90
2019-01-10T17:14:40.168Z,12.03
2019-01-10T17:17:07.428Z,10.98
2019-01-10T17:19:35.631Z,11.70
2019-01-10T17:22:02.906Z,10.32
2019-01-10T17:24:30.568Z,13.32
2019-01-10T17:26:59.699Z,13.90
2019-01-10T17:29:46.567Z,13.78
2019-01-10T17:32:13.758Z,13.35
2019-01-10T17:34:40.885Z,15.20
2019-01-10T17:37:07.969Z,20.27
2019-01-10T17:39:35.933Z,11.48
2019-01-10T17:42:05.899Z,15.13
2019-01-10T17:44:33.699Z,15.43
2019-01-10T17:47:00.894Z,14.10
2019-01-10T17:49:28.906Z,30.12
2019-01-10T17:51:56.415Z,15.78
2019-01-10T17:54:23.532Z,12.85
2019-01-10T17:56:50.823Z,27.42
2019-01-10T17:59:18.806Z,66.62
2019-01-10T18:01:47.232Z,100.27
2019-01-10T18:04:15.373Z,38.02
2019-01-10T18:06:45.336Z,21.60
2019-01-10T18:09:12.654Z,7.85
2019-01-10T18:11:40.642Z,11.35
2019-01-10T18:14:29.607Z,20.30
2019-01-10T18:16:57.978Z,12.85
2019-01-10T18:19:25.769Z,19.30
2019-01-10T18:21:53.337Z,8.45
2019-01-10T18:24:20.835Z,24.30
2019-01-10T18:26:51.138Z,10.45
2019-01-10T18:29:20.203Z,17.40
2019-01-10T18:31:50.335Z,32.35
2019-01-10T18:34:18.527Z,9.58
2019-01-10T18:36:46.060Z,12.80
2019-01-10T18:39:13.865Z,18.00
2019-01-10T18:41:41.581Z,12.65
2019-01-10T18:44:14.703Z,12.63
2019-01-10T18:46:43.563Z,9.88
2019-01-10T18:49:11.619Z,9.48
2019-01-10T18:51:39.034Z,10.35
2019-01-10T18:54:06.819Z,7.80
2019-01-10T18:56:36.801Z,11.10
2019-01-10T18:59:05.285Z,9.90
2019-01-10T19:01:34.620Z,11.15
2019-01-10T19:06:48.576Z,11.00
2019-01-10T19:09:38.228Z,11.05
2019-01-10T19:12:29.144Z,11.60
2019-01-10T19:15:20.714Z,9.23
2019-01-10T19:17:51.544Z,10.55
2019-01-10T19:23:21.474Z,11.07
2019-01-10T19:25:49.258Z,11.95
2019-01-10T19:28:17.863Z,11.15
2019-01-10T19:30:46.453Z,14.78
2019-01-10T19:33:14.625Z,11.65
2019-01-10T19:35:42.925Z,13.85
2019-01-10T19:38:31.853Z,16.30
2019-01-10T19:41:00.874Z,15.10
2019-01-10T19:46:18.540Z,15.30
2019-01-10T19:48:47.124Z,14.70
2019-01-10T19:54:21.425Z,14.55
2019-01-10T19:56:50.128Z,16.55
2019-01-10T19:59:18.834Z,16.42
2019-01-10T20:02:09.150Z,13.90
2019-01-10T20:04:55.155Z,15.03
2019-01-10T20:07:23.992Z,13.45
2019-01-10T20:09:53.445Z,13.30
2019-01-10T20:12:22.304Z,13.25
2019-01-10T20:14:54.400Z,11.80
2019-01-10T20:17:28.077Z,12.10
2019-01-10T20:19:57.781Z,11.40
2019-01-10T20:22:26.691Z,17.35
2019-01-10T20:24:55.321Z,12.63
2019-01-10T20:27:27.333Z,12.78
2019-01-10T20:29:56.289Z,15.75
2019-01-10T20:32:24.920Z,16.70
2019-01-10T20:34:53.745Z,11.40
2019-01-10T20:37:42.661Z,13.70
2019-01-10T20:46:02.370Z,15.78
2019-01-10T20:48:33.401Z,11.97
2019-01-10T20:51:21.326Z,15.98
2019-01-10T20:53:49.557Z,11.78
2019-01-10T20:56:37.261Z,12.30
2019-01-10T21:02:05.096Z,14.70
2019-01-10T21:04:33.737Z,14.40
2019-01-10T21:07:02.444Z,14.60
2019-01-10T21:09:30.331Z,12.13
2019-01-10T21:11:59.010Z,14.95
2019-01-10T21:14:27.312Z,15.40
2019-01-10T21:16:56.094Z,20.62
2019-01-10T21:19:24.458Z,12.58
2019-01-10T21:21:53.614Z,14.85
2019-01-10T21:24:21.431Z,19.95
2019-01-10T21:26:48.966Z,15.32
2019-01-10T21:29:23.645Z,15.72
2019-01-10T21:31:51.664Z,17.27
2019-01-10T21:34:19.873Z,15.32
2019-01-10T21:36:48.037Z,18.65
2019-01-10T21:39:19.287Z,18.02
2019-01-10T21:41:47.014Z,18.15
2019-01-10T21:44:15.167Z,18.12
2019-01-10T21:46:43.058Z,18.67
2019-01-10T21:49:11.262Z,11.63
2019-01-10T21:51:38.556Z,16.95
2019-01-10T21:54:08.415Z,13.85
2019-01-10T21:56:35.813Z,14.45
2019-01-10T21:59:02.979Z,15.28
2019-01-10T22:01:30.148Z,13.40
2019-01-10T22:03:57.668Z,15.93
2019-01-10T22:06:25.086Z,14.60
2019-01-10T22:08:52.207Z,19.70
2019-01-10T22:11:19.605Z,17.92
2019-01-10T22:13:46.739Z,16.10
2019-01-10T22:16:13.859Z,16.05
2019-01-10T22:18:41.592Z,15.40
2019-01-10T22:21:09.086Z,15.63
2019-01-10T22:23:36.195Z,17.17
2019-01-10T22:26:03.277Z,19.67
2019-01-10T22:28:30.369Z,17.27
2019-01-10T22:30:57.466Z,17.27
2019-01-10T22:33:24.565Z,16.97
2019-01-10T22:35:51.779Z,16.57
2019-01-10T22:38:18.871Z,14.18
2019-01-10T22:40:45.965Z,16.25
2019-01-10T22:43:13.048Z,15.50
2019-01-10T22:45:40.163Z,18.10
2019-01-10T22:48:07.251Z,13.58
2019-01-10T22:50:34.313Z,18.32
2019-01-10T22:53:01.362Z,14.30
2019-01-10T22:55:35.258Z,16.07
2019-01-10T22:58:02.747Z,15.03
2019-01-10T23:01:32.659Z,16.07
2019-01-10T23:03:59.942Z,14.95
2019-01-10T23:06:36.556Z,14.73
2019-01-10T23:09:07.336Z,18.75
2019-01-10T23:11:34.355Z,18.00
2019-01-10T23:14:02.341Z,14.83
2019-01-10T23:16:30.142Z,18.30
2019-01-10T23:18:57.185Z,14.00
2019-01-10T23:21:24.260Z,12.60
2019-01-10T23:24:16.685Z,15.98
2019-01-10T23:26:53.623Z,17.82
2019-01-10T23:29:21.023Z,12.85
2019-01-10T23:31:48.527Z,15.23
2019-01-10T23:34:15.596Z,14.60
2019-01-10T23:36:48.811Z,16.55
2019-01-10T23:39:19.846Z,14.93
2019-01-10T23:41:47.447Z,13.72
2019-01-10T23:44:14.473Z,16.42
2019-01-10T23:46:41.639Z,17.17
2019-01-10T23:49:08.670Z,16.32
2019-01-10T23:51:35.816Z,16.00
2019-01-10T23:54:02.960Z,15.18
2019-01-10T23:56:30.007Z,14.07
2019-01-10T23:58:57.032Z,16.75
